createdAt,value
2022-11-16T00:00:37.912Z,7.75
2022-11-16T00:03:22.776Z,6.20
2022-11-16T00:06:07.586Z,5.03
2022-11-16T00:08:52.469Z,3.72
2022-11-16T00:11:37.210Z,2.67
2022-11-16T00:14:22.121Z,2.29
2022-11-16T00:17:07.083Z,2.13
2022-11-16T00:19:51.851Z,2.21
2022-11-16T00:22:36.868Z,1.69
2022-11-16T00:25:22.449Z,1.71
2022-11-16T00:28:07.866Z,1.51
2022-11-16T00:30:52.883Z,1.39
2022-11-16T00:33:37.687Z,1.28
2022-11-16T00:36:22.601Z,0.91
2022-11-16T00:39:07.416Z,0.88
2022-11-16T00:41:52.229Z,0.78
2022-11-16T00:44:37.198Z,0.64
2022-11-16T00:47:22.087Z,0.64
2022-11-16T00:50:06.952Z,0.69
2022-11-16T00:52:51.914Z,0.73
2022-11-16T00:55:36.751Z,0.66
2022-11-16T00:58:21.526Z,0.63
2022-11-16T01:01:06.478Z,0.83
2022-11-16T01:03:51.749Z,0.74
2022-11-16T01:06:36.790Z,0.79
2022-11-16T01:09:21.538Z,0.76
2022-11-16T01:12:06.368Z,0.77
2022-11-16T01:14:51.300Z,0.74
2022-11-16T01:17:36.231Z,0.75
2022-11-16T01:20:21.078Z,0.54
2022-11-16T01:23:05.847Z,0.56
2022-11-16T01:25:50.828Z,0.63
2022-11-16T01:28:36.140Z,0.49
2022-11-16T01:31:21.532Z,0.64
2022-11-16T01:34:06.444Z,0.63
2022-11-16T01:36:51.380Z,0.53
2022-11-16T01:39:36.227Z,0.53
2022-11-16T01:42:21.040Z,0.60
2022-11-16T01:45:06.030Z,0.56
2022-11-16T01:47:51.028Z,0.66
2022-11-16T01:50:35.793Z,0.82
2022-11-16T01:53:20.550Z,0.65
2022-11-16T01:56:05.487Z,0.62
2022-11-16T01:58:50.288Z,0.93
2022-11-16T02:01:35.338Z,1.11
2022-11-16T02:04:20.209Z,1.36
2022-11-16T02:07:05.069Z,1.41
2022-11-16T02:09:50.505Z,1.70
2022-11-16T02:12:35.439Z,1.81
2022-11-16T02:15:20.313Z,1.89
2022-11-16T02:18:05.246Z,2.18
2022-11-16T02:20:50.124Z,2.31
2022-11-16T02:23:34.980Z,2.23
2022-11-16T02:26:19.890Z,2.37
2022-11-16T02:29:04.782Z,2.48
2022-11-16T02:31:49.774Z,2.64
2022-11-16T02:34:34.574Z,2.82
2022-11-16T02:37:19.305Z,2.41
2022-11-16T02:40:04.234Z,2.37
2022-11-16T02:42:49.154Z,2.19
2022-11-16T02:45:34.100Z,2.00
2022-11-16T02:48:18.964Z,1.95
2022-11-16T02:51:03.925Z,1.91
2022-11-16T02:53:48.696Z,1.77
2022-11-16T02:56:33.595Z,1.56
2022-11-16T02:59:18.312Z,1.57
2022-11-16T03:02:03.278Z,1.35
2022-11-16T03:04:48.237Z,1.31
2022-11-16T03:07:33.199Z,1.31
2022-11-16T03:10:18.140Z,1.24
2022-11-16T03:13:02.865Z,1.25
2022-11-16T03:15:47.693Z,1.06
2022-11-16T03:18:32.897Z,1.05
2022-11-16T03:21:17.947Z,1.08
2022-11-16T03:24:02.781Z,1.11
2022-11-16T03:26:47.598Z,1.04
2022-11-16T03:29:32.637Z,1.03
2022-11-16T03:32:17.360Z,1.06
2022-11-16T03:35:02.432Z,1.03
2022-11-16T03:37:47.233Z,1.07
2022-11-16T03:40:32.218Z,1.00
2022-11-16T03:43:16.995Z,1.02
2022-11-16T03:46:01.855Z,1.10
2022-11-16T03:48:46.705Z,1.03
2022-11-16T03:51:31.782Z,1.13
2022-11-16T03:54:16.783Z,1.01
2022-11-16T03:57:01.592Z,1.02
2022-11-16T03:59:46.366Z,1.05
2022-11-16T04:02:31.321Z,1.06
2022-11-16T04:05:16.191Z,0.99
2022-11-16T04:08:01.060Z,1.37
2022-11-16T04:10:46.109Z,1.12
2022-11-16T04:13:31.026Z,1.22
2022-11-16T04:16:15.926Z,1.15
2022-11-16T04:19:00.829Z,1.20
2022-11-16T04:21:45.662Z,1.09
2022-11-16T04:24:30.576Z,1.03
2022-11-16T04:27:15.535Z,1.15
2022-11-16T04:30:00.555Z,1.07
2022-11-16T04:32:45.366Z,1.10
2022-11-16T04:35:30.244Z,1.18
2022-11-16T04:38:15.266Z,1.26
2022-11-16T04:41:00.006Z,1.30
2022-11-16T04:43:44.968Z,1.36
2022-11-16T04:46:29.815Z,1.37
2022-11-16T04:49:14.599Z,1.27
2022-11-16T04:51:59.383Z,1.35
2022-11-16T04:54:44.364Z,1.56
2022-11-16T04:57:29.170Z,1.63
2022-11-16T05:00:14.121Z,1.55
2022-11-16T05:03:01.516Z,1.41
2022-11-16T05:05:46.794Z,1.26
2022-11-16T05:08:32.125Z,1.20
2022-11-16T05:11:17.289Z,1.03
2022-11-16T05:14:02.267Z,1.08
2022-11-16T05:16:47.057Z,0.93
2022-11-16T05:19:32.048Z,0.95
2022-11-16T05:22:17.003Z,1.03
2022-11-16T05:25:01.898Z,0.94
2022-11-16T05:27:46.792Z,0.90
2022-11-16T05:30:31.811Z,0.87
2022-11-16T05:33:16.686Z,0.93
2022-11-16T05:36:01.491Z,0.85
2022-11-16T05:38:46.368Z,0.88
2022-11-16T05:41:31.351Z,1.09
2022-11-16T05:44:16.587Z,0.93
2022-11-16T05:47:01.583Z,0.95
2022-11-16T05:49:46.402Z,1.04
2022-11-16T05:52:31.409Z,1.09
2022-11-16T05:55:16.339Z,0.94
2022-11-16T05:58:01.197Z,1.11
2022-11-16T06:00:45.941Z,1.00
2022-11-16T06:03:30.814Z,0.95
2022-11-16T06:06:15.581Z,0.86
2022-11-16T06:09:00.453Z,0.97
2022-11-16T06:11:45.309Z,0.96
2022-11-16T06:14:30.177Z,1.01
2022-11-16T06:17:15.104Z,0.94
2022-11-16T06:19:59.852Z,0.97
2022-11-16T06:22:44.845Z,0.97
2022-11-16T06:25:29.726Z,1.05
2022-11-16T06:28:14.724Z,0.95
2022-11-16T06:30:59.704Z,1.05
2022-11-16T06:33:44.462Z,0.95
2022-11-16T06:36:29.376Z,1.11
2022-11-16T06:39:14.345Z,1.23
2022-11-16T06:41:59.307Z,1.07
2022-11-16T06:44:44.075Z,1.29
2022-11-16T06:47:28.999Z,1.13
2022-11-16T06:50:13.969Z,1.04
2022-11-16T06:52:58.993Z,1.51
2022-11-16T06:55:43.736Z,1.73
2022-11-16T06:58:28.596Z,1.78
2022-11-16T07:01:13.507Z,1.68
2022-11-16T07:03:58.973Z,1.65
2022-11-16T07:06:43.809Z,1.57
2022-11-16T07:09:28.702Z,1.39
2022-11-16T07:12:13.653Z,1.58
2022-11-16T07:14:58.378Z,1.47
2022-11-16T07:17:43.446Z,1.57
2022-11-16T07:20:28.280Z,1.82
2022-11-16T07:23:14.290Z,1.57
2022-11-16T07:25:59.376Z,1.45
2022-11-16T07:28:48.241Z,1.30
2022-11-16T07:31:33.870Z,1.36
2022-11-16T07:34:18.941Z,1.39
2022-11-16T07:37:03.623Z,1.50
2022-11-16T07:39:48.481Z,1.31
2022-11-16T07:42:33.265Z,1.48
2022-11-16T07:45:18.271Z,1.48
2022-11-16T07:48:03.107Z,1.61
2022-11-16T07:50:47.898Z,1.49
2022-11-16T07:53:32.713Z,1.57
2022-11-16T07:56:17.712Z,1.69
2022-11-16T07:59:02.561Z,1.52
2022-11-16T08:01:47.525Z,1.81
2022-11-16T08:04:32.473Z,1.83
2022-11-16T08:07:17.309Z,1.78
2022-11-16T08:10:02.178Z,1.40
2022-11-16T08:12:47.042Z,0.84
2022-11-16T08:15:31.982Z,0.92
2022-11-16T08:18:16.741Z,0.88
2022-11-16T08:21:01.627Z,0.85
2022-11-16T08:23:46.534Z,0.71
2022-11-16T08:26:31.438Z,0.80
2022-11-16T08:29:16.361Z,0.66
2022-11-16T08:32:01.186Z,1.01
2022-11-16T08:34:46.194Z,0.81
2022-11-16T08:37:31.091Z,0.81
2022-11-16T08:40:16.007Z,0.83
2022-11-16T08:43:00.813Z,1.01
2022-11-16T08:45:45.788Z,0.82
2022-11-16T08:48:31.035Z,1.09
2022-11-16T08:51:18.239Z,0.96
2022-11-16T08:54:03.685Z,1.21
2022-11-16T08:56:48.594Z,1.02
2022-11-16T08:59:33.460Z,0.94
2022-11-16T09:02:18.399Z,0.95
2022-11-16T09:05:03.250Z,0.91
2022-11-16T09:07:48.141Z,0.97
2022-11-16T09:10:32.982Z,1.04
2022-11-16T09:13:17.870Z,1.01
2022-11-16T09:16:03.012Z,1.05
2022-11-16T09:18:48.299Z,0.97
2022-11-16T09:21:32.893Z,0.99
2022-11-16T09:24:17.866Z,1.17
2022-11-16T09:27:02.598Z,1.02
2022-11-16T09:29:47.388Z,0.90
2022-11-16T09:32:32.441Z,0.91
2022-11-16T09:35:17.181Z,1.00
2022-11-16T09:38:02.078Z,0.98
2022-11-16T09:40:46.854Z,0.90
2022-11-16T09:43:32.146Z,0.92
2022-11-16T09:46:17.042Z,1.11
2022-11-16T09:49:01.959Z,1.40
2022-11-16T09:51:46.762Z,1.13
2022-11-16T09:54:31.643Z,1.07
2022-11-16T09:57:16.690Z,1.28
2022-11-16T10:00:01.463Z,1.19
2022-11-16T10:02:46.445Z,1.00
2022-11-16T10:05:31.270Z,0.93
2022-11-16T10:08:16.235Z,1.01
2022-11-16T10:11:01.012Z,0.94
2022-11-16T10:13:45.945Z,1.03
2022-11-16T10:16:30.784Z,0.85
2022-11-16T10:19:15.620Z,1.06
2022-11-16T10:22:00.630Z,1.06
2022-11-16T10:24:45.507Z,0.90
2022-11-16T10:27:30.384Z,1.01
2022-11-16T10:30:15.224Z,0.98
2022-11-16T10:33:00.126Z,0.97
2022-11-16T10:35:44.973Z,1.05
2022-11-16T10:38:30.037Z,1.19
2022-11-16T10:41:15.003Z,1.09
2022-11-16T10:43:59.919Z,1.08
2022-11-16T10:46:45.059Z,1.03
2022-11-16T10:49:29.941Z,1.11
2022-11-16T10:52:14.807Z,1.07
2022-11-16T10:54:59.746Z,1.06
2022-11-16T10:57:44.610Z,1.14
2022-11-16T11:00:29.397Z,1.30
2022-11-16T11:03:14.329Z,1.11
2022-11-16T11:05:59.306Z,0.99
2022-11-16T11:08:44.247Z,1.03
2022-11-16T11:11:29.170Z,1.10
2022-11-16T11:14:13.996Z,1.12
2022-11-16T11:16:58.855Z,1.04
2022-11-16T11:19:43.764Z,1.10
2022-11-16T11:22:28.679Z,1.23
2022-11-16T11:25:13.620Z,1.11
2022-11-16T11:27:58.501Z,1.30
2022-11-16T11:30:43.302Z,1.29
2022-11-16T11:33:28.236Z,1.52
2022-11-16T11:36:13.143Z,1.15
2022-11-16T11:38:58.055Z,1.16
2022-11-16T11:41:42.952Z,1.10
2022-11-16T11:44:27.665Z,1.05
2022-11-16T11:47:55.596Z,1.08
2022-11-16T11:50:17.621Z,1.25
2022-11-16T11:53:02.527Z,1.35
2022-11-16T11:55:47.386Z,1.08
2022-11-16T11:58:32.091Z,1.03
2022-11-16T12:01:22.181Z,1.11
2022-11-16T12:04:10.107Z,1.07
2022-11-16T12:06:55.039Z,0.98
2022-11-16T12:09:39.944Z,0.97
2022-11-16T12:12:24.906Z,0.95
2022-11-16T12:15:09.779Z,0.90
2022-11-16T12:17:54.772Z,1.10
2022-11-16T12:20:39.496Z,1.00
2022-11-16T12:23:24.324Z,0.93
2022-11-16T12:26:09.145Z,1.00
2022-11-16T12:28:53.940Z,1.06
2022-11-16T12:31:38.943Z,1.05
2022-11-16T12:34:23.905Z,1.00
2022-11-16T12:37:08.813Z,1.09
2022-11-16T12:39:53.670Z,1.00
2022-11-16T12:42:38.701Z,0.94
2022-11-16T12:45:27.640Z,1.01
2022-11-16T12:48:15.859Z,1.00
2022-11-16T12:51:00.973Z,1.05
2022-11-16T12:53:45.790Z,0.93
2022-11-16T12:56:30.595Z,0.93
2022-11-16T12:59:15.308Z,1.19
2022-11-16T13:02:00.773Z,0.99
2022-11-16T13:04:46.187Z,0.91
2022-11-16T13:07:31.074Z,0.85
2022-11-16T13:10:16.016Z,1.02
2022-11-16T13:13:29.662Z,1.02
2022-11-16T13:16:05.865Z,1.11
2022-11-16T13:18:50.764Z,1.06
2022-11-16T13:21:35.573Z,0.88
2022-11-16T13:24:20.487Z,1.02
2022-11-16T13:27:05.301Z,1.05
2022-11-16T13:29:50.306Z,0.93
2022-11-16T13:32:35.085Z,0.84
2022-11-16T13:35:19.964Z,0.80
2022-11-16T13:38:04.914Z,1.12
2022-11-16T13:40:49.854Z,0.83
2022-11-16T13:43:34.818Z,0.81
2022-11-16T13:46:53.777Z,0.87
2022-11-16T13:49:24.687Z,1.05
2022-11-16T13:52:35.683Z,0.98
2022-11-16T13:55:14.886Z,0.88
2022-11-16T13:57:59.784Z,0.99
2022-11-16T14:00:44.877Z,1.00
2022-11-16T14:03:29.657Z,0.79
2022-11-16T14:06:14.645Z,0.97
2022-11-16T14:08:59.633Z,0.86
2022-11-16T14:11:44.539Z,0.89
2022-11-16T14:14:29.268Z,0.87
2022-11-16T14:17:14.148Z,0.94
2022-11-16T14:19:58.918Z,1.39
2022-11-16T14:22:43.871Z,1.15
2022-11-16T14:25:29.152Z,0.96
2022-11-16T14:28:13.867Z,0.97
2022-11-16T14:30:58.827Z,0.83
2022-11-16T14:33:43.606Z,0.91
2022-11-16T14:36:28.540Z,0.86
2022-11-16T14:39:13.395Z,0.78
2022-11-16T14:41:58.474Z,0.83
2022-11-16T14:44:43.385Z,0.99
2022-11-16T14:47:28.304Z,0.90
2022-11-16T14:50:13.328Z,0.72
2022-11-16T14:52:58.244Z,0.82
2022-11-16T14:55:43.245Z,0.90
2022-11-16T14:58:27.970Z,1.06
2022-11-16T15:01:12.836Z,1.02
2022-11-16T15:03:57.777Z,1.25
2022-11-16T15:06:43.176Z,1.04
2022-11-16T15:09:28.165Z,0.85
2022-11-16T15:12:13.077Z,0.82
2022-11-16T15:14:58.084Z,0.94
2022-11-16T15:17:43.009Z,1.06
2022-11-16T15:20:27.837Z,1.06
2022-11-16T15:23:12.659Z,1.01
2022-11-16T15:25:57.642Z,1.00
2022-11-16T15:28:47.161Z,1.02
2022-11-16T15:31:34.662Z,0.95
2022-11-16T15:34:19.720Z,1.01
2022-11-16T15:37:04.680Z,0.93
2022-11-16T15:39:49.640Z,0.98
2022-11-16T15:42:34.603Z,0.82
2022-11-16T15:45:19.469Z,1.00
2022-11-16T15:48:04.364Z,1.00
2022-11-16T15:50:49.209Z,1.02
2022-11-16T15:53:34.495Z,0.85
2022-11-16T15:56:19.518Z,1.01
2022-11-16T15:59:04.462Z,0.81
2022-11-16T16:01:49.470Z,0.94
2022-11-16T16:04:34.328Z,0.81
2022-11-16T16:07:19.434Z,0.99
2022-11-16T16:10:04.773Z,1.04
2022-11-16T16:12:50.432Z,1.03
2022-11-16T16:15:35.229Z,1.35
2022-11-16T16:18:20.111Z,1.39
2022-11-16T16:21:04.973Z,1.39
2022-11-16T16:23:50.089Z,1.37
2022-11-16T16:26:35.034Z,1.46
2022-11-16T16:29:20.022Z,1.36
2022-11-16T16:32:05.069Z,1.37
2022-11-16T16:34:50.006Z,1.48
2022-11-16T16:37:34.981Z,1.25
2022-11-16T16:40:19.731Z,1.29
2022-11-16T16:43:04.867Z,1.28
2022-11-16T16:45:49.633Z,1.20
2022-11-16T16:48:34.584Z,1.34
2022-11-16T16:51:19.619Z,1.40
2022-11-16T16:54:04.482Z,1.09
2022-11-16T16:56:49.428Z,1.11
2022-11-16T16:59:34.367Z,1.04
2022-11-16T17:02:19.696Z,1.16
2022-11-16T17:05:04.652Z,1.28
2022-11-16T17:07:49.629Z,1.38
2022-11-16T17:10:34.546Z,1.28
2022-11-16T17:13:19.963Z,1.23
2022-11-16T17:16:05.240Z,1.22
2022-11-16T17:18:50.061Z,1.35
2022-11-16T17:21:34.923Z,1.63
2022-11-16T17:24:19.771Z,1.62
2022-11-16T17:27:04.785Z,1.29
2022-11-16T17:29:49.971Z,1.46
2022-11-16T17:32:35.132Z,1.50
2022-11-16T17:35:20.142Z,1.36
2022-11-16T17:38:05.016Z,1.37
2022-11-16T17:40:49.984Z,1.38
2022-11-16T17:43:35.186Z,1.69
2022-11-16T17:46:20.257Z,1.57
2022-11-16T17:49:05.197Z,1.50
2022-11-16T17:51:50.042Z,1.54
2022-11-16T17:54:35.007Z,1.70
2022-11-16T17:57:19.825Z,1.48
2022-11-16T18:00:04.937Z,1.42
2022-11-16T18:02:49.923Z,1.58
2022-11-16T18:05:34.975Z,1.69
2022-11-16T18:08:19.825Z,1.54
2022-11-16T18:11:04.642Z,1.96
2022-11-16T18:13:49.584Z,1.97
2022-11-16T18:16:34.648Z,2.05
2022-11-16T18:19:19.550Z,2.52
2022-11-16T18:22:04.497Z,2.24
2022-11-16T18:24:49.542Z,2.13
2022-11-16T18:27:34.534Z,2.12
2022-11-16T18:30:19.501Z,2.18
2022-11-16T18:33:04.309Z,1.99
2022-11-16T18:35:49.329Z,1.90
2022-11-16T18:38:34.029Z,1.96
2022-11-16T18:41:18.909Z,1.81
2022-11-16T18:44:03.770Z,1.87
2022-11-16T18:46:48.654Z,2.04
2022-11-16T18:49:33.726Z,1.91
2022-11-16T18:52:18.562Z,2.35
2022-11-16T18:55:03.408Z,2.73
2022-11-16T18:57:48.346Z,2.87
2022-11-16T19:00:33.250Z,2.89
2022-11-16T19:03:18.081Z,3.17
2022-11-16T19:06:03.115Z,3.23
2022-11-16T19:08:55.026Z,3.43
2022-11-16T19:11:40.645Z,3.71
2022-11-16T19:14:25.407Z,3.44
2022-11-16T19:17:10.298Z,3.27
2022-11-16T19:19:55.200Z,3.13
2022-11-16T19:22:39.957Z,3.29
2022-11-16T19:25:24.808Z,4.57
2022-11-16T19:28:09.648Z,4.36
2022-11-16T19:30:54.426Z,4.32
2022-11-16T19:33:39.357Z,3.65
2022-11-16T19:36:24.316Z,7.58
2022-11-16T19:39:09.325Z,11.12
2022-11-16T19:41:54.249Z,5.27
2022-11-16T19:44:39.116Z,3.97
2022-11-16T19:47:24.137Z,5.87
2022-11-16T19:50:08.979Z,4.83
2022-11-16T19:52:53.850Z,4.36
2022-11-16T19:55:38.661Z,3.30
2022-11-16T19:58:23.692Z,2.58
2022-11-16T20:01:08.846Z,3.06
2022-11-16T20:03:54.182Z,4.19
2022-11-16T20:06:39.171Z,5.04
2022-11-16T20:09:24.025Z,16.26
2022-11-16T20:12:08.975Z,12.34
2022-11-16T20:14:53.737Z,4.03
2022-11-16T20:17:38.874Z,3.56
2022-11-16T20:20:23.871Z,3.74
2022-11-16T20:23:08.771Z,3.48
2022-11-16T20:25:53.701Z,3.28
2022-11-16T20:28:38.512Z,5.12
2022-11-16T20:31:23.423Z,6.24
2022-11-16T20:34:08.290Z,10.34
2022-11-16T20:36:53.273Z,3.81
2022-11-16T20:39:38.211Z,4.95
2022-11-16T20:42:23.467Z,4.30
2022-11-16T20:45:08.358Z,4.16
2022-11-16T20:47:53.198Z,4.02
2022-11-16T20:50:39.333Z,4.19
2022-11-16T20:53:24.520Z,4.25
2022-11-16T20:56:09.380Z,3.86
2022-11-16T20:58:54.318Z,3.60
2022-11-16T21:01:39.335Z,3.71
2022-11-16T21:04:24.179Z,4.23
2022-11-16T21:07:09.119Z,5.17
2022-11-16T21:09:53.991Z,5.99
2022-11-16T21:12:42.781Z,3.46
2022-11-16T21:15:27.975Z,7.86
2022-11-16T21:18:12.862Z,5.06
2022-11-16T21:20:57.772Z,4.52
2022-11-16T21:23:42.710Z,3.28
2022-11-16T21:26:27.439Z,3.60
2022-11-16T21:29:12.406Z,17.48
2022-11-16T21:31:57.310Z,17.72
2022-11-16T21:34:42.274Z,4.33
2022-11-16T21:37:27.252Z,5.43
2022-11-16T21:40:12.212Z,3.21
2022-11-16T21:42:57.250Z,3.02
2022-11-16T21:45:42.079Z,3.18
2022-11-16T21:48:28.275Z,3.08
2022-11-16T21:51:13.019Z,3.13
2022-11-16T21:53:57.986Z,3.37
2022-11-16T21:56:42.860Z,3.21
2022-11-16T21:59:27.925Z,3.14
2022-11-16T22:02:12.855Z,2.92
2022-11-16T22:04:57.703Z,2.80
2022-11-16T22:07:42.707Z,2.96
2022-11-16T22:10:27.552Z,3.01
2022-11-16T22:13:12.548Z,2.97
2022-11-16T22:15:57.324Z,2.81
2022-11-16T22:18:42.242Z,2.73
2022-11-16T22:21:27.181Z,2.68
2022-11-16T22:24:12.065Z,2.74
2022-11-16T22:26:57.579Z,2.77
2022-11-16T22:29:42.445Z,2.73
2022-11-16T22:32:27.343Z,2.98
2022-11-16T22:35:12.294Z,2.97
2022-11-16T22:37:57.178Z,2.90
2022-11-16T22:40:42.050Z,2.97
2022-11-16T22:43:26.920Z,2.70
2022-11-16T22:46:11.706Z,2.09
2022-11-16T22:48:56.610Z,2.25
2022-11-16T22:51:41.556Z,2.40
2022-11-16T22:54:28.735Z,2.42
2022-11-16T22:57:14.141Z,2.44
2022-11-16T23:00:01.964Z,2.57
2022-11-16T23:02:46.781Z,2.66
2022-11-16T23:05:31.760Z,3.02
2022-11-16T23:08:16.633Z,3.06
2022-11-16T23:11:01.521Z,2.99
2022-11-16T23:13:46.527Z,2.98
2022-11-16T23:16:31.387Z,3.06
2022-11-16T23:19:16.396Z,2.80
2022-11-16T23:22:01.255Z,2.74
2022-11-16T23:24:46.268Z,2.76
2022-11-16T23:27:31.088Z,2.41
2022-11-16T23:30:16.244Z,2.62
2022-11-16T23:33:01.032Z,2.53
2022-11-16T23:35:45.968Z,2.33
2022-11-16T23:38:30.911Z,2.06
2022-11-16T23:41:15.978Z,2.42
2022-11-16T23:44:00.836Z,2.32
2022-11-16T23:46:45.709Z,2.62
2022-11-16T23:49:30.763Z,2.34
2022-11-16T23:52:15.709Z,1.99
2022-11-16T23:55:00.718Z,2.42
2022-11-16T23:57:45.558Z,2.25
